Time;durP1;ratioP1;P1;durP2;ratioP2;P2;SDS_P1;SDS_P2;PMS_P1;PMS_P2;Temp;Humidity;BMP_temperature;BMP_pressure;BME280_temperature;BME280_humidity;BME280_pressure;Samples;Min_cycle;Max_cycle;Signal;HPM_P1;HPM_P2
2022/07/08 00:00:02;;;;;;;3.37;2.83;;;18.10;99.60;;;;;;5113752;28;20996;-58
2022/07/08 00:02:29;;;;;;;5.30;3.43;;;18.00;99.60;;;;;;5114087;28;20544;-58
2022/07/08 00:04:56;;;;;;;4.17;2.40;;;18.00;99.70;;;;;;5114226;28;20803;-58
2022/07/08 00:07:23;;;;;;;7.43;2.80;;;18.10;99.60;;;;;;5113932;28;20450;-57
2022/07/08 00:09:52;;;;;;;6.60;3.00;;;18.00;99.80;;;;;;5113618;28;21045;-58
2022/07/08 00:12:19;;;;;;;6.03;2.60;;;18.10;99.90;;;;;;5113816;28;20529;-58
2022/07/08 00:14:46;;;;;;;3.00;2.50;;;18.00;99.60;;;;;;5113645;28;20558;-58
2022/07/08 00:17:13;;;;;;;9.33;3.57;;;18.00;99.90;;;;;;5113467;28;20561;-58
2022/07/08 00:19:41;;;;;;;10.30;3.07;;;18.00;99.50;;;;;;5113930;28;20505;-58
2022/07/08 00:22:08;;;;;;;3.73;3.20;;;17.80;98.20;;;;;;5113864;28;20449;-57
2022/07/08 00:24:35;;;;;;;6.27;3.00;;;17.90;97.30;;;;;;5113733;28;20443;-57
2022/07/08 00:27:04;;;;;;;5.10;3.10;;;17.70;97.00;;;;;;5113881;28;20485;-58
2022/07/08 00:29:31;;;;;;;6.83;3.30;;;17.70;96.60;;;;;;5113347;28;20553;-57
2022/07/08 00:31:58;;;;;;;4.00;3.00;;;17.60;96.60;;;;;;5113374;28;20453;-57
2022/07/08 00:34:25;;;;;;;3.63;2.53;;;17.60;97.00;;;;;;5113520;28;20486;-57
2022/07/08 00:36:53;;;;;;;10.03;3.37;;;17.70;96.80;;;;;;5113591;28;20527;-57
2022/07/08 00:39:20;;;;;;;6.30;3.13;;;17.70;96.70;;;;;;5113593;28;20530;-57
2022/07/08 00:41:47;;;;;;;5.60;3.27;;;17.70;96.50;;;;;;5113448;28;20423;-58
2022/07/08 00:44:16;;;;;;;5.33;3.10;;;17.60;96.40;;;;;;5113223;28;20454;-58
2022/07/08 00:46:43;;;;;;;7.93;3.63;;;17.50;96.60;;;;;;5113239;28;20495;-58
2022/07/08 00:49:10;;;;;;;4.07;2.87;;;17.40;96.60;;;;;;5113293;28;20565;-57
2022/07/08 00:51:38;;;;;;;6.63;3.53;;;17.50;97.20;;;;;;5113336;28;20462;-57
2022/07/08 00:54:06;;;;;;;3.53;3.23;;;17.40;96.70;;;;;;5115568;28;20518;-58
2022/07/08 00:56:33;;;;;;;8.70;3.40;;;17.40;97.10;;;;;;5117586;28;20533;-58
2022/07/08 00:59:01;;;;;;;3.67;3.37;;;17.20;97.20;;;;;;5117274;28;20537;-58
2022/07/08 01:01:29;;;;;;;6.70;3.37;;;17.10;97.60;;;;;;5117074;28;20839;-58
2022/07/08 01:03:56;;;;;;;4.37;3.70;;;17.10;97.70;;;;;;5117106;28;20780;-58
2022/07/08 01:06:23;;;;;;;5.67;4.00;;;16.90;97.80;;;;;;5117420;28;20426;-58
2022/07/08 01:08:51;;;;;;;8.47;3.83;;;16.80;98.10;;;;;;5116959;28;21000;-57
2022/07/08 01:11:18;;;;;;;9.17;3.90;;;16.70;98.10;;;;;;5116781;27;20473;-59
2022/07/08 01:13:47;;;;;;;3.63;3.33;;;16.80;98.50;;;;;;5116811;28;20485;-57
2022/07/08 01:16:14;;;;;;;5.67;4.70;;;16.70;98.00;;;;;;5116579;28;20489;-57
2022/07/08 01:18:43;;;;;;;4.40;4.00;;;16.60;97.80;;;;;;5116812;28;20462;-57
2022/07/08 01:21:11;;;;;;;4.30;3.63;;;16.60;97.70;;;;;;5117145;28;20467;-58
2022/07/08 01:23:39;;;;;;;6.27;4.40;;;16.70;97.80;;;;;;5116737;28;20442;-58
2022/07/08 01:26:10;;;;;;;6.47;3.37;;;16.70;97.40;;;;;;5116973;28;20489;-57
2022/07/08 01:28:38;;;;;;;13.93;4.17;;;16.60;96.90;;;;;;5116721;28;20466;-58
2022/07/08 01:31:05;;;;;;;6.47;3.83;;;16.60;97.00;;;;;;5116977;27;20542;-57
2022/07/08 01:33:32;;;;;;;8.10;4.20;;;16.70;96.80;;;;;;5116867;28;20812;-58
2022/07/08 01:35:59;;;;;;;6.70;4.10;;;16.60;96.60;;;;;;5116984;28;20576;-58
2022/07/08 01:38:28;;;;;;;7.37;3.77;;;16.70;96.50;;;;;;5116563;27;20482;-57
2022/07/08 01:40:55;;;;;;;4.23;3.60;;;16.70;96.50;;;;;;5116656;28;20542;-59
2022/07/08 01:43:22;;;;;;;7.13;3.87;;;16.60;96.30;;;;;;5116347;28;20537;-58
2022/07/08 01:45:50;;;;;;;9.03;3.67;;;16.50;96.40;;;;;;5116678;28;20854;-58
2022/07/08 01:48:18;;;;;;;9.70;4.13;;;16.50;96.50;;;;;;5116636;28;20446;-58
2022/07/08 01:50:45;;;;;;;6.27;3.40;;;16.50;96.80;;;;;;5116428;28;20470;-58
2022/07/08 01:53:12;;;;;;;6.13;3.40;;;16.50;96.40;;;;;;5116333;28;20971;-58
2022/07/08 01:55:41;;;;;;;8.70;3.83;;;16.40;96.30;;;;;;5116482;28;20490;-58
2022/07/08 01:58:08;;;;;;;6.67;3.67;;;16.40;96.50;;;;;;5116411;28;20547;-58
2022/07/08 02:00:35;;;;;;;4.33;3.33;;;16.40;96.40;;;;;;5116106;28;20553;-58
2022/07/08 02:03:03;;;;;;;6.67;3.67;;;16.30;96.50;;;;;;5116300;28;20533;-58
2022/07/08 02:05:32;;;;;;;6.93;3.87;;;16.30;96.50;;;;;;5115830;28;20872;-58
2022/07/08 02:07:59;;;;;;;5.50;3.70;;;16.20;96.80;;;;;;5116044;28;20451;-58
2022/07/08 02:10:27;;;;;;;6.37;3.57;;;16.20;96.90;;;;;;5116082;27;20468;-58
2022/07/08 02:12:54;;;;;;;5.37;3.20;;;16.10;97.00;;;;;;5116025;28;20447;-58
2022/07/08 02:15:22;;;;;;;5.50;3.30;;;16.00;97.20;;;;;;5116019;28;20501;-58
2022/07/08 02:17:49;;;;;;;5.73;3.90;;;15.90;97.50;;;;;;5115774;28;20477;-58
2022/07/08 02:20:17;;;;;;;5.40;3.57;;;15.80;97.80;;;;;;5115891;28;20463;-58
2022/07/08 02:22:44;;;;;;;3.97;3.33;;;15.80;98.10;;;;;;5115570;28;20449;-58
2022/07/08 02:25:12;;;;;;;5.23;4.00;;;15.90;98.00;;;;;;5115666;28;20439;-58
2022/07/08 02:27:39;;;;;;;4.53;3.70;;;15.70;98.20;;;;;;5115533;28;20489;-58
2022/07/08 02:30:09;;;;;;;4.40;3.43;;;15.80;99.10;;;;;;5115656;28;20545;-58
2022/07/08 02:32:36;;;;;;;5.60;3.83;;;15.70;98.50;;;;;;5115800;28;20453;-58
2022/07/08 02:35:04;;;;;;;5.80;3.80;;;15.70;98.60;;;;;;5115668;28;20943;-59
2022/07/08 02:37:31;;;;;;;5.20;3.77;;;15.70;99.00;;;;;;5115256;28;20478;-59
2022/07/08 02:39:58;;;;;;;7.40;3.60;;;15.70;98.80;;;;;;5115693;28;20545;-58
2022/07/08 02:42:26;;;;;;;4.20;3.80;;;15.70;98.60;;;;;;5115531;28;20945;-58
2022/07/08 02:44:53;;;;;;;8.30;3.60;;;15.70;98.70;;;;;;5115061;28;20482;-59
2022/07/08 02:47:21;;;;;;;9.40;4.33;;;15.60;98.80;;;;;;5115513;28;20442;-58
2022/07/08 02:49:48;;;;;;;4.17;3.73;;;15.60;99.30;;;;;;5114954;28;20458;-60
2022/07/08 02:52:15;;;;;;;11.13;5.37;;;15.50;99.00;;;;;;5114941;28;20446;-59
2022/07/08 02:54:43;;;;;;;12.20;4.10;;;15.50;99.30;;;;;;5115060;28;20953;-59
2022/07/08 02:57:10;;;;;;;5.93;3.50;;;15.60;99.20;;;;;;5114921;28;20449;-59
2022/07/08 02:59:37;;;;;;;3.30;3.00;;;15.60;99.20;;;;;;5115078;28;20551;-59
2022/07/08 03:02:04;;;;;;;6.13;3.33;;;15.70;99.30;;;;;;5115558;28;20442;-58
2022/07/08 03:04:33;;;;;;;7.23;4.33;;;15.70;99.00;;;;;;5114802;28;20944;-58
2022/07/08 03:07:00;;;;;;;5.70;3.40;;;15.70;99.10;;;;;;5114696;28;20443;-58
2022/07/08 03:09:27;;;;;;;5.53;3.13;;;15.60;99.00;;;;;;5114808;28;21000;-58
2022/07/08 03:11:54;;;;;;;9.10;3.63;;;15.60;98.90;;;;;;5115046;28;20442;-58
2022/07/08 03:14:21;;;;;;;9.20;4.33;;;15.60;99.20;;;;;;5114866;28;20525;-59
2022/07/08 03:16:48;;;;;;;8.87;3.50;;;15.60;99.20;;;;;;5113666;28;20828;-58
2022/07/08 03:19:16;;;;;;;4.70;3.30;;;15.60;99.20;;;;;;5114498;28;20443;-58
2022/07/08 03:21:44;;;;;;;4.50;3.67;;;15.60;99.30;;;;;;5114407;28;21031;-58
2022/07/08 03:24:12;;;;;;;6.13;4.20;;;15.60;99.30;;;;;;5114658;28;20446;-58
2022/07/08 03:26:39;;;;;;;5.33;3.23;;;15.60;99.60;;;;;;5114766;28;20439;-58
2022/07/08 03:29:06;;;;;;;9.70;4.50;;;15.60;99.30;;;;;;5114419;28;20478;-58
2022/07/08 03:31:34;;;;;;;4.63;3.53;;;15.50;99.50;;;;;;5114509;28;20453;-59
2022/07/08 03:34:01;;;;;;;4.27;3.47;;;15.50;99.30;;;;;;5114577;28;20798;-59
2022/07/08 03:36:29;;;;;;;7.93;3.20;;;15.40;99.40;;;;;;5114285;28;20458;-58
2022/07/08 03:38:58;;;;;;;9.20;2.90;;;15.50;99.40;;;;;;5114538;28;20455;-59
2022/07/08 03:41:24;;;;;;;6.93;3.20;;;15.50;99.50;;;;;;5114450;28;20468;-58
2022/07/08 03:43:52;;;;;;;8.47;3.83;;;15.50;99.70;;;;;;5114098;28;20492;-58
2022/07/08 03:46:20;;;;;;;7.20;3.57;;;15.50;99.50;;;;;;5114386;28;20549;-58
2022/07/08 03:48:48;;;;;;;5.73;2.93;;;15.40;99.30;;;;;;5114306;28;20474;-58
2022/07/08 03:51:16;;;;;;;6.87;3.60;;;15.40;99.30;;;;;;5113964;28;20499;-59
2022/07/08 03:53:44;;;;;;;4.93;3.70;;;15.40;99.90;;;;;;5114022;28;20472;-59
2022/07/08 03:56:12;;;;;;;6.73;3.77;;;15.50;99.90;;;;;;5114062;28;20478;-59
2022/07/08 03:58:40;;;;;;;6.70;3.77;;;15.50;99.90;;;;;;5113878;28;20533;-59
2022/07/08 04:01:07;;;;;;;8.40;3.40;;;15.50;99.90;;;;;;5113878;28;20509;-59
2022/07/08 04:03:35;;;;;;;15.03;4.10;;;15.50;99.70;;;;;;5113856;28;20442;-58
2022/07/08 04:06:02;;;;;;;7.37;4.13;;;15.50;99.70;;;;;;5114379;28;20446;-59
2022/07/08 04:08:29;;;;;;;5.97;3.40;;;15.50;99.70;;;;;;5113960;28;20460;-58
2022/07/08 04:10:56;;;;;;;5.47;3.33;;;15.40;99.90;;;;;;5113513;28;20467;-59
2022/07/08 04:13:27;;;;;;;5.57;3.27;;;15.40;99.90;;;;;;5113701;28;20560;-58
2022/07/08 04:15:54;;;;;;;5.73;3.27;;;15.40;99.90;;;;;;5113519;28;20462;-59
2022/07/08 04:18:21;;;;;;;8.37;3.53;;;15.40;99.90;;;;;;5113991;28;20427;-58
2022/07/08 04:20:49;;;;;;;4.57;3.20;;;15.50;99.90;;;;;;5113785;28;20975;-59
2022/07/08 04:23:16;;;;;;;8.47;3.77;;;15.50;99.90;;;;;;5113737;28;20541;-58
2022/07/08 04:25:43;;;;;;;4.53;3.40;;;15.40;99.90;;;;;;5113736;28;20481;-58
2022/07/08 04:28:10;;;;;;;5.03;3.10;;;15.40;99.90;;;;;;5115952;28;20445;-59
2022/07/08 04:30:39;;;;;;;9.50;4.10;;;15.30;99.90;;;;;;5120418;27;20549;-58
2022/07/08 04:33:08;;;;;;;6.60;3.43;;;15.20;99.90;;;;;;5120318;27;20483;-59
2022/07/08 04:35:35;;;;;;;9.90;3.70;;;15.10;99.90;;;;;;5120736;27;20504;-58
2022/07/08 04:38:03;;;;;;;5.93;3.33;;;15.30;99.90;;;;;;5120239;27;20446;-59
2022/07/08 04:40:30;;;;;;;9.13;4.03;;;15.50;99.90;;;;;;5120285;27;20462;-59
2022/07/08 04:42:57;;;;;;;5.33;4.17;;;15.50;99.90;;;;;;5120539;27;20896;-59
2022/07/08 04:45:25;;;;;;;7.90;3.23;;;15.50;99.90;;;;;;5120328;27;20457;-59
2022/07/08 04:47:54;;;;;;;6.67;3.63;;;15.30;99.90;;;;;;5120114;27;20538;-59
2022/07/08 04:50:21;;;;;;;6.17;3.40;;;15.40;99.90;;;;;;5119927;27;20507;-59
2022/07/08 04:52:48;;;;;;;5.60;3.90;;;15.50;99.90;;;;;;5120427;27;20446;-59
2022/07/08 04:55:28;;;;;;;8.17;3.83;;;15.50;99.90;;;;;;5120010;27;20447;-59
2022/07/08 04:57:57;;;;;;;5.30;3.23;;;15.50;99.90;;;;;;5119970;27;20442;-59
2022/07/08 05:00:24;;;;;;;5.80;3.10;;;15.50;99.90;;;;;;5120118;27;20462;-59
2022/07/08 05:02:53;;;;;;;9.87;4.00;;;15.50;99.90;;;;;;5120417;27;20442;-59
2022/07/08 05:05:21;;;;;;;11.60;3.87;;;15.50;99.90;;;;;;5120161;27;20904;-59
2022/07/08 05:07:48;;;;;;;8.07;3.90;;;15.50;99.90;;;;;;5120114;27;20450;-59
2022/07/08 05:10:16;;;;;;;6.77;4.00;;;15.50;99.80;;;;;;5119892;27;20984;-59
2022/07/08 05:12:44;;;;;;;10.53;3.33;;;15.50;99.90;;;;;;5119719;27;20442;-59
2022/07/08 05:15:12;;;;;;;8.67;3.33;;;15.60;99.90;;;;;;5119938;27;20534;-58
2022/07/08 05:17:39;;;;;;;7.43;3.37;;;15.60;99.90;;;;;;5119524;27;20490;-59
2022/07/08 05:20:10;;;;;;;10.27;3.33;;;15.60;99.90;;;;;;5119502;27;20564;-58
2022/07/08 05:22:38;;;;;;;4.37;3.50;;;15.70;99.70;;;;;;5119987;27;20430;-58
2022/07/08 05:25:06;;;;;;;5.17;3.40;;;15.70;99.40;;;;;;5120080;28;20533;-58
2022/07/08 05:27:34;;;;;;;8.40;3.80;;;15.70;99.90;;;;;;5119734;27;20527;-58
2022/07/08 05:30:02;;;;;;;4.03;3.00;;;15.70;99.40;;;;;;5119503;27;20466;-59
2022/07/08 05:32:29;;;;;;;5.67;2.93;;;15.70;99.40;;;;;;5119468;27;20448;-58
2022/07/08 05:34:56;;;;;;;9.27;3.40;;;15.80;99.20;;;;;;5119824;28;20538;-58
2022/07/08 05:37:25;;;;;;;10.70;3.83;;;15.70;98.90;;;;;;5119815;27;20573;-58
2022/07/08 05:39:52;;;;;;;4.37;2.90;;;15.80;98.80;;;;;;5117405;27;20854;-59
2022/07/08 05:42:19;;;;;;;6.83;3.10;;;15.80;98.90;;;;;;5116819;28;20541;-58
2022/07/08 05:44:47;;;;;;;4.27;3.57;;;15.90;99.20;;;;;;5115947;28;20541;-58
2022/07/08 05:47:14;;;;;;;9.10;3.10;;;15.90;99.20;;;;;;5116396;28;20531;-58
2022/07/08 05:49:43;;;;;;;9.30;2.90;;;16.00;98.60;;;;;;5116466;28;20469;-58
2022/07/08 05:52:10;;;;;;;7.90;2.93;;;15.90;98.30;;;;;;5115986;28;20450;-60
2022/07/08 05:54:39;;;;;;;3.73;3.00;;;16.00;98.60;;;;;;5116178;28;20481;-58
2022/07/08 05:57:07;;;;;;;7.80;3.57;;;16.10;98.30;;;;;;5116175;28;20554;-58
2022/07/08 05:59:34;;;;;;;6.40;3.10;;;16.10;98.00;;;;;;5115738;28;20466;-58
2022/07/08 06:02:01;;;;;;;6.40;3.40;;;16.10;98.00;;;;;;5115795;28;20538;-58
2022/07/08 06:04:29;;;;;;;4.07;3.60;;;16.10;98.00;;;;;;5116041;28;20521;-58
2022/07/08 06:06:56;;;;;;;6.33;2.80;;;16.20;97.60;;;;;;5115653;28;20443;-58
2022/07/08 06:09:24;;;;;;;5.37;2.90;;;16.20;97.60;;;;;;5115664;28;20549;-58
2022/07/08 06:11:53;;;;;;;3.57;3.27;;;16.30;97.60;;;;;;5116171;28;20454;-58
2022/07/08 06:14:20;;;;;;;4.83;2.70;;;16.30;97.70;;;;;;5115696;28;20449;-58
2022/07/08 06:16:48;;;;;;;7.00;4.43;;;16.30;97.70;;;;;;5115426;28;20585;-58
2022/07/08 06:19:15;;;;;;;5.57;3.13;;;16.40;97.60;;;;;;5115409;28;20446;-58
2022/07/08 06:21:43;;;;;;;5.90;2.73;;;16.40;97.20;;;;;;5115614;28;20538;-59
2022/07/08 06:24:10;;;;;;;9.50;3.77;;;16.60;97.40;;;;;;5115244;28;20948;-58
2022/07/08 06:26:38;;;;;;;5.73;3.33;;;16.70;97.20;;;;;;5115191;28;21013;-59
2022/07/08 06:29:06;;;;;;;4.20;3.20;;;16.70;95.70;;;;;;5115406;28;20530;-59
2022/07/08 06:31:34;;;;;;;3.83;2.60;;;16.80;96.40;;;;;;5115508;28;20438;-58
2022/07/08 06:34:01;;;;;;;4.73;2.87;;;16.90;95.60;;;;;;5115366;28;20469;-59
2022/07/08 06:36:28;;;;;;;2.83;2.33;;;16.90;95.00;;;;;;5115640;28;20553;-58
2022/07/08 06:38:56;;;;;;;13.23;4.27;;;16.90;96.00;;;;;;5115451;28;20469;-59
2022/07/08 06:41:23;;;;;;;8.07;3.47;;;17.10;95.80;;;;;;5115098;28;20478;-58
2022/07/08 06:43:50;;;;;;;3.50;2.23;;;17.10;95.40;;;;;;5114921;28;20457;-59
2022/07/08 06:46:18;;;;;;;3.30;2.67;;;17.40;96.20;;;;;;5115273;28;20552;-59
2022/07/08 06:48:46;;;;;;;5.90;3.10;;;17.50;94.40;;;;;;5114872;28;20443;-59
2022/07/08 06:51:14;;;;;;;4.10;2.47;;;17.60;94.50;;;;;;5114991;28;20473;-59
2022/07/08 06:56:25;;;;;;;7.60;2.50;;;17.70;93.70;;;;;;5114776;28;20462;-58
2022/07/08 06:58:53;;;;;;;4.20;2.40;;;17.60;93.20;;;;;;5114791;28;20447;-59
2022/07/08 07:01:21;;;;;;;5.83;2.47;;;17.40;92.40;;;;;;5114965;28;20462;-59
2022/07/08 07:03:49;;;;;;;5.73;2.80;;;17.40;93.10;;;;;;5114643;28;20518;-58
2022/07/08 07:06:16;;;;;;;5.83;2.20;;;17.70;93.10;;;;;;5114687;28;20427;-59
2022/07/08 07:08:44;;;;;;;4.40;2.10;;;18.00;92.90;;;;;;5114705;27;20447;-58
2022/07/08 07:11:11;;;;;;;7.60;2.73;;;18.30;91.90;;;;;;5114832;28;20516;-59
2022/07/08 07:13:38;;;;;;;9.93;2.53;;;;;;;;;;5114783;28;20497;-58
2022/07/08 07:16:06;;;;;;;5.27;2.33;;;19.50;90.10;;;;;;5114224;28;20529;-58
2022/07/08 07:18:35;;;;;;;2.83;1.80;;;19.70;90.30;;;;;;5114718;28;20466;-59
2022/07/08 07:21:02;;;;;;;4.30;2.50;;;19.90;87.70;;;;;;5114220;28;20473;-59
2022/07/08 07:23:29;;;;;;;5.30;2.53;;;19.50;89.70;;;;;;5114278;28;20443;-58
2022/07/08 07:25:57;;;;;;;8.60;2.53;;;19.00;87.80;;;;;;5114354;28;20427;-58
2022/07/08 07:28:24;;;;;;;4.07;3.20;;;18.90;87.70;;;;;;5114070;28;20948;-58
2022/07/08 07:30:51;;;;;;;7.83;2.60;;;18.40;88.00;;;;;;5114161;28;20549;-58
2022/07/08 07:33:18;;;;;;;7.60;2.33;;;18.40;89.90;;;;;;5114103;28;20529;-59
2022/07/08 07:35:47;;;;;;;4.37;2.60;;;18.60;90.80;;;;;;5114275;28;20486;-59
2022/07/08 07:38:14;;;;;;;5.90;2.47;;;18.90;90.60;;;;;;5113850;28;20601;-59
2022/07/08 07:40:42;;;;;;;2.70;2.07;;;19.30;87.50;;;;;;5114609;28;20489;-59
2022/07/08 07:43:09;;;;;;;3.83;2.20;;;19.00;86.60;;;;;;5114398;28;20879;-59
2022/07/08 07:45:36;;;;;;;3.23;2.50;;;19.20;89.80;;;;;;5113753;28;20454;-59
2022/07/08 07:48:03;;;;;;;5.17;3.70;;;19.30;89.90;;;;;;5114181;28;20469;-58
2022/07/08 07:50:31;;;;;;;5.00;2.10;;;19.40;87.70;;;;;;5113874;28;20865;-58
2022/07/08 07:52:59;;;;;;;5.20;2.50;;;19.20;85.50;;;;;;5113988;28;20451;-59
2022/07/08 07:55:27;;;;;;;6.50;2.70;;;18.90;88.20;;;;;;5113793;28;20890;-59
2022/07/08 07:57:54;;;;;;;4.87;2.47;;;18.90;86.40;;;;;;5113621;28;20473;-58
2022/07/08 08:00:21;;;;;;;4.00;2.67;;;18.90;88.10;;;;;;5113871;28;20462;-58
2022/07/08 08:02:48;;;;;;;3.27;2.10;;;18.80;87.60;;;;;;5113377;28;20500;-58
2022/07/08 08:05:16;;;;;;;4.03;2.20;;;18.60;86.90;;;;;;5114105;28;20472;-58
2022/07/08 08:07:43;;;;;;;2.70;2.20;;;18.40;86.80;;;;;;5113529;28;20453;-59
2022/07/08 08:10:13;;;;;;;4.17;2.10;;;18.40;89.70;;;;;;5113265;28;20462;-58
2022/07/08 08:12:40;;;;;;;3.93;2.13;;;18.40;87.00;;;;;;5113578;28;20537;-58
2022/07/08 08:15:09;;;;;;;3.43;2.53;;;18.40;85.80;;;;;;5113422;28;20461;-58
2022/07/08 08:17:37;;;;;;;2.87;2.30;;;18.30;86.70;;;;;;5113175;28;20573;-58
2022/07/08 08:20:06;;;;;;;4.13;2.00;;;18.20;86.90;;;;;;5113573;28;20831;-58
2022/07/08 08:22:37;;;;;;;2.63;2.17;;;18.70;88.50;;;;;;5113344;28;20875;-58
2022/07/08 08:25:05;;;;;;;4.40;2.30;;;19.90;85.40;;;;;;5113177;28;20538;-58
2022/07/08 08:27:39;;;;;;;3.20;2.17;;;20.10;84.30;;;;;;5113374;28;20813;-59
2022/07/08 08:30:07;;;;;;;3.63;1.87;;;20.90;80.10;;;;;;5113782;28;20545;-59
2022/07/08 08:32:35;;;;;;;6.67;2.20;;;22.30;79.60;;;;;;5113700;28;20469;-59
2022/07/08 08:35:02;;;;;;;5.20;1.93;;;23.50;78.30;;;;;;5113435;28;20458;-59
2022/07/08 08:37:30;;;;;;;4.23;1.87;;;23.10;76.80;;;;;;5113151;28;20478;-59
2022/07/08 08:39:57;;;;;;;2.20;2.00;;;22.00;76.10;;;;;;5113433;28;20695;-59
2022/07/08 08:42:25;;;;;;;3.93;3.27;;;22.40;76.90;;;;;;5113167;28;20953;-58
2022/07/08 08:44:53;;;;;;;3.17;2.10;;;22.90;76.90;;;;;;5113629;28;20839;-59
2022/07/08 08:47:28;;;;;;;4.23;2.10;;;22.80;76.90;;;;;;5113694;28;20452;-59
2022/07/08 08:49:56;;;;;;;3.13;2.17;;;22.50;75.60;;;;;;5113150;28;20466;-59
2022/07/08 08:52:25;;;;;;;4.13;1.90;;;22.70;73.50;;;;;;5113416;28;20493;-59
2022/07/08 08:54:55;;;;;;;5.37;2.20;;;21.80;72.40;;;;;;5113535;28;20833;-59
2022/07/08 08:57:23;;;;;;;3.60;2.23;;;20.80;74.30;;;;;;5112955;28;20510;-59
2022/07/08 08:59:51;;;;;;;3.13;2.00;;;21.20;75.30;;;;;;5113006;28;20462;-59
2022/07/08 09:02:21;;;;;;;3.57;1.77;;;23.00;73.90;;;;;;5113580;28;20543;-59
2022/07/08 09:04:49;;;;;;;9.40;2.67;;;24.20;71.60;;;;;;5113438;28;20458;-58
2022/07/08 09:07:17;;;;;;;4.40;1.63;;;24.40;70.50;;;;;;5113373;28;20803;-59
2022/07/08 09:09:44;;;;;;;3.43;2.57;;;24.00;71.00;;;;;;5112947;28;20494;-58
2022/07/08 09:12:18;;;;;;;3.90;1.90;;;22.50;69.50;;;;;;5113443;28;20446;-58
2022/07/08 09:14:51;;;;;;;3.10;2.50;;;21.50;73.00;;;;;;5113341;28;20446;-59
2022/07/08 09:17:18;;;;;;;4.40;1.90;;;20.80;74.80;;;;;;5116741;28;20489;-58
2022/07/08 09:19:49;;;;;;;5.30;2.77;;;21.30;74.10;;;;;;5117201;28;20549;-58
2022/07/08 09:22:16;;;;;;;3.13;2.33;;;21.40;73.30;;;;;;5116591;28;20521;-59
2022/07/08 09:24:45;;;;;;;5.37;2.07;;;;;;;;;;5116646;28;20475;-60
2022/07/08 09:27:13;;;;;;;2.57;1.80;;;23.30;70.50;;;;;;5116711;28;20487;-59
2022/07/08 09:29:41;;;;;;;3.73;2.30;;;24.60;71.40;;;;;;5116347;28;20964;-59
2022/07/08 09:32:12;;;;;;;4.47;2.03;;;24.70;68.90;;;;;;5116319;28;20446;-59
2022/07/08 09:34:40;;;;;;;5.80;2.17;;;25.70;70.50;;;;;;5116505;28;20549;-59
2022/07/08 09:37:18;;;;;;;4.53;2.13;;;25.90;70.80;;;;;;5116737;28;20535;-59
2022/07/08 09:39:47;;;;;;;3.90;2.63;;;25.70;63.60;;;;;;5116937;28;20466;-59
2022/07/08 09:42:16;;;;;;;3.23;1.90;;;25.70;65.40;;;;;;5116159;28;20541;-60
2022/07/08 09:44:43;;;;;;;2.47;1.63;;;26.50;65.20;;;;;;5116219;28;20451;-59
2022/07/08 09:47:11;;;;;;;4.23;2.30;;;26.10;62.40;;;;;;5116379;28;20448;-59
2022/07/08 09:49:41;;;;;;;4.87;2.30;;;26.10;62.90;;;;;;5116322;28;20475;-59
2022/07/08 09:52:09;;;;;;;2.10;1.57;;;26.40;61.70;;;;;;5116483;28;20434;-59
2022/07/08 09:54:38;;;;;;;3.73;2.47;;;26.10;61.60;;;;;;5116102;28;20453;-59
2022/07/08 09:57:07;;;;;;;2.50;1.83;;;26.90;61.50;;;;;;5116203;28;20838;-59
2022/07/08 09:59:35;;;;;;;3.93;2.13;;;27.10;61.00;;;;;;5115834;28;20488;-60
2022/07/08 10:02:03;;;;;;;6.60;2.27;;;27.40;60.40;;;;;;5115814;28;20538;-59
2022/07/08 10:04:31;;;;;;;2.63;1.90;;;27.20;59.60;;;;;;5116261;28;20455;-59
2022/07/08 10:06:59;;;;;;;2.40;1.80;;;25.30;60.10;;;;;;5116139;28;20487;-59
2022/07/08 10:09:27;;;;;;;6.20;2.60;;;26.00;74.50;;;;;;5115777;28;20477;-59
2022/07/08 10:11:56;;;;;;;3.70;1.90;;;;;;;;;;5116030;28;20442;-59
2022/07/08 10:14:23;;;;;;;5.33;2.17;;;25.90;61.40;;;;;;5115645;28;20446;-59
2022/07/08 10:16:53;;;;;;;2.53;1.80;;;25.20;62.00;;;;;;5115651;28;20504;-59
2022/07/08 10:19:28;;;;;;;2.63;1.80;;;25.80;60.60;;;;;;5115931;28;20486;-59
2022/07/08 10:21:58;;;;;;;4.17;1.90;;;25.70;59.40;;;;;;5115933;28;20486;-59
2022/07/08 10:24:29;;;;;;;4.50;2.43;;;26.00;61.60;;;;;;5115968;28;20414;-59
2022/07/08 10:27:00;;;;;;;4.00;2.53;;;26.60;60.10;;;;;;5115266;28;20449;-59
2022/07/08 10:29:31;;;;;;;2.70;2.10;;;27.20;59.60;;;;;;5115672;28;20462;-60
2022/07/08 10:31:59;;;;;;;3.17;1.93;;;25.50;59.30;;;;;;5115776;28;20442;-59
2022/07/08 10:34:31;;;;;;;2.13;1.90;;;25.30;60.10;;;;;;5115508;28;20545;-59
2022/07/08 10:36:59;;;;;;;5.57;2.03;;;25.90;60.10;;;;;;5115619;28;20843;-60
2022/07/08 10:39:27;;;;;;;3.40;1.80;;;26.70;58.30;;;;;;5115201;28;20525;-59
2022/07/08 10:42:00;;;;;;;5.87;1.97;;;26.20;60.30;;;;;;5115253;28;20449;-60
2022/07/08 10:44:49;;;;;;;4.40;2.00;;;26.40;59.10;;;;;;5114864;28;20537;-60
2022/07/08 10:47:18;;;;;;;2.87;1.80;;;27.30;57.60;;;;;;5114939;28;20830;-60
2022/07/08 10:49:46;;;;;;;5.50;2.30;;;27.50;57.80;;;;;;5115362;28;20462;-60
2022/07/08 10:52:14;;;;;;;7.17;2.07;;;27.40;57.80;;;;;;5115477;28;20796;-60
2022/07/08 10:54:42;;;;;;;4.67;2.20;;;27.30;57.40;;;;;;5114787;28;21000;-60
2022/07/08 10:57:16;;;;;;;4.83;2.03;;;27.80;59.10;;;;;;5114818;28;20478;-60
2022/07/08 11:00:02;;;;;;;2.70;1.70;;;27.70;56.80;;;;;;5115353;28;20483;-60
2022/07/08 11:02:29;;;;;;;4.43;1.97;;;27.50;56.00;;;;;;5115132;28;20866;-60
2022/07/08 11:04:57;;;;;;;2.90;1.90;;;27.10;56.10;;;;;;5115122;28;20465;-60
2022/07/08 11:07:30;;;;;;;3.07;1.50;;;27.20;56.30;;;;;;5114880;28;20968;-60
2022/07/08 11:10:04;;;;;;;4.40;1.80;;;27.10;57.50;;;;;;5114744;28;21000;-60
2022/07/08 11:12:35;;;;;;;2.30;1.87;;;27.50;56.40;;;;;;5114597;28;20458;-60
2022/07/08 11:15:05;;;;;;;3.10;2.17;;;27.60;55.90;;;;;;5114469;28;20525;-60
2022/07/08 11:17:34;;;;;;;5.10;2.20;;;27.70;55.40;;;;;;5100966;28;20479;-57
2022/07/08 11:20:05;;;;;;;4.60;1.40;;;27.20;57.40;;;;;;5102857;28;20569;-59
2022/07/08 11:22:36;;;;;;;5.43;2.03;;;27.50;55.80;;;;;;5094502;28;20475;-59
2022/07/08 11:25:05;;;;;;;3.67;1.50;;;27.00;56.00;;;;;;5094049;28;20427;-60
2022/07/08 11:27:34;;;;;;;5.80;2.23;;;27.10;56.80;;;;;;5094054;28;20443;-60
2022/07/08 11:30:03;;;;;;;4.10;2.10;;;26.80;56.20;;;;;;5093563;28;20482;-58
2022/07/08 11:32:31;;;;;;;4.70;1.80;;;26.30;56.40;;;;;;5093142;28;20889;-57
2022/07/08 11:34:58;;;;;;;3.47;1.43;;;27.00;58.00;;;;;;5094122;28;20455;-59
2022/07/08 11:37:26;;;;;;;3.23;1.80;;;27.60;56.00;;;;;;5093022;28;20891;-57
2022/07/08 11:39:53;;;;;;;3.90;2.17;;;;;;;;;;5111978;28;20886;-58
2022/07/08 11:42:21;;;;;;;7.20;2.13;;;27.90;55.50;;;;;;5100700;28;20553;-59
2022/07/08 11:44:49;;;;;;;4.03;1.80;;;27.90;55.70;;;;;;5110770;28;20873;-57
2022/07/08 11:47:20;;;;;;;3.50;2.10;;;27.90;55.30;;;;;;5099188;28;20937;-58
2022/07/08 11:49:48;;;;;;;4.07;2.30;;;27.00;55.20;;;;;;5101759;28;20883;-59
2022/07/08 11:52:17;;;;;;;3.47;1.93;;;27.00;55.50;;;;;;5103205;28;20569;-59
2022/07/08 11:54:47;;;;;;;5.73;2.10;;;26.60;57.40;;;;;;5105474;28;20451;-63
2022/07/08 11:57:15;;;;;;;3.80;2.03;;;27.00;56.10;;;;;;5096780;28;20455;-60
2022/07/08 11:59:44;;;;;;;3.13;1.60;;;26.50;57.00;;;;;;5101923;28;20556;-57
2022/07/08 12:02:13;;;;;;;6.50;2.57;;;27.20;56.20;;;;;;5102110;28;20486;-54
2022/07/08 12:04:45;;;;;;;4.13;1.90;;;27.30;55.40;;;;;;5105402;27;20470;-55
2022/07/08 12:07:23;;;;;;;5.03;1.80;;;;;;;;;;5098326;28;20508;-50
2022/07/08 12:09:55;;;;;;;5.33;2.30;;;27.90;55.30;;;;;;5103551;28;20474;-64
2022/07/08 12:12:23;;;;;;;3.17;1.70;;;28.00;55.70;;;;;;5096300;28;20487;-54
2022/07/08 12:14:51;;;;;;;2.93;1.80;;;26.80;55.60;;;;;;5101313;28;20976;-57
2022/07/08 12:17:25;;;;;;;4.33;1.73;;;26.80;56.20;;;;;;5099169;28;20549;-56
2022/07/08 12:19:53;;;;;;;3.50;1.80;;;27.00;55.50;;;;;;5098563;28;20493;-64
2022/07/08 12:22:46;;;;;;;3.20;1.93;;;26.90;56.00;;;;;;5097866;28;20466;-58
2022/07/08 12:25:14;;;;;;;2.00;1.90;;;27.30;55.50;;;;;;5100509;28;20493;-55
2022/07/08 12:27:42;;;;;;;2.60;1.77;;;27.40;55.60;;;;;;5097958;28;20451;-57
2022/07/08 12:30:10;;;;;;;2.97;1.60;;;27.40;55.10;;;;;;5096440;28;20993;-56
2022/07/08 12:32:40;;;;;;;3.20;1.60;;;27.40;56.10;;;;;;5099818;28;20499;-53
2022/07/08 12:35:09;;;;;;;6.77;1.87;;;26.60;55.40;;;;;;5106450;28;20998;-55
2022/07/08 12:37:36;;;;;;;3.23;1.63;;;27.10;55.80;;;;;;5109646;27;20462;-62
2022/07/08 12:40:14;;;;;;;4.90;1.80;;;27.20;55.60;;;;;;5101234;28;20491;-56
2022/07/08 12:42:41;;;;;;;2.80;1.73;;;27.40;54.30;;;;;;5095389;28;21011;-56
2022/07/08 12:45:16;;;;;;;3.20;1.90;;;27.30;55.60;;;;;;5097072;28;20487;-58
2022/07/08 12:47:46;;;;;;;2.70;1.53;;;27.40;54.70;;;;;;5097704;28;20508;-58
2022/07/08 12:50:19;;;;;;;2.90;1.70;;;27.20;54.30;;;;;;5098407;27;20485;-50
2022/07/08 12:52:46;;;;;;;2.40;1.50;;;27.30;54.80;;;;;;5097291;28;21007;-58
2022/07/08 12:55:14;;;;;;;2.73;1.60;;;27.40;55.00;;;;;;5100085;28;20826;-60